sensor_id;sensor_type;location;lat;lon;timestamp;temperature;humidity
33428;DHT22;19769;48.150;16.306;2023-07-13T02:02:48;22.80;99.90
33428;DHT22;19769;48.150;16.306;2023-07-13T02:05:14;23.70;99.90
33428;DHT22;19769;48.150;16.306;2023-07-13T02:07:41;23.40;99.90
33428;DHT22;19769;48.150;16.306;2023-07-13T02:10:07;23.40;99.90
33428;DHT22;19769;48.150;16.306;2023-07-13T02:12:34;23.50;99.90
33428;DHT22;19769;48.150;16.306;2023-07-13T02:15:00;23.60;99.90
33428;DHT22;19769;48.150;16.306;2023-07-13T02:17:27;23.80;99.90
33428;DHT22;19769;48.150;16.306;2023-07-13T02:19:54;23.90;99.90
33428;DHT22;19769;48.150;16.306;2023-07-13T02:22:20;24.00;99.90
33428;DHT22;19769;48.150;16.306;2023-07-13T02:24:46;24.00;99.90
33428;DHT22;19769;48.150;16.306;2023-07-13T02:27:12;24.00;99.90
33428;DHT22;19769;48.150;16.306;2023-07-13T02:29:39;24.10;99.90
33428;DHT22;19769;48.150;16.306;2023-07-13T02:32:05;24.00;99.90
33428;DHT22;19769;48.150;16.306;2023-07-13T02:34:33;24.90;99.90
33428;DHT22;19769;48.150;16.306;2023-07-13T02:36:59;24.10;99.90
33428;DHT22;19769;48.150;16.306;2023-07-13T02:39:25;24.20;99.90
33428;DHT22;19769;48.150;16.306;2023-07-13T02:41:51;24.20;99.90
33428;DHT22;19769;48.150;16.306;2023-07-13T02:44:16;24.10;99.90
33428;DHT22;19769;48.150;16.306;2023-07-13T02:46:42;24.20;99.90
33428;DHT22;19769;48.150;16.306;2023-07-13T02:49:08;24.10;99.90
33428;DHT22;19769;48.150;16.306;2023-07-13T02:51:34;24.10;99.90
33428;DHT22;19769;48.150;16.306;2023-07-13T02:54:01;24.10;99.90
33428;DHT22;19769;48.150;16.306;2023-07-13T02:56:28;24.20;99.90
33428;DHT22;19769;48.150;16.306;2023-07-13T02:58:55;24.10;99.90
33428;DHT22;19769;48.150;16.306;2023-07-13T03:01:21;24.00;99.90
33428;DHT22;19769;48.150;16.306;2023-07-13T03:03:50;23.90;99.90
33428;DHT22;19769;48.150;16.306;2023-07-13T03:06:18;23.90;99.90
33428;DHT22;19769;48.150;16.306;2023-07-13T03:08:48;23.80;99.90
33428;DHT22;19769;48.150;16.306;2023-07-13T03:11:16;23.80;99.90
33428;DHT22;19769;48.150;16.306;2023-07-13T07:20:21;23.80;99.90
33428;DHT22;19769;48.150;16.306;2023-07-13T07:22:47;24.60;99.90
33428;DHT22;19769;48.150;16.306;2023-07-13T07:54:27;24.50;99.90
33428;DHT22;19769;48.150;16.306;2023-07-13T08:38:27;24.80;99.90
33428;DHT22;19769;48.150;16.306;2023-07-13T12:03:05;27.60;99.90
33428;DHT22;19769;48.150;16.306;2023-07-13T12:05:31;31.80;74.40
33428;DHT22;19769;48.150;16.306;2023-07-13T12:07:58;31.80;72.60
33428;DHT22;19769;48.150;16.306;2023-07-13T12:10:29;32.00;68.30
33428;DHT22;19769;48.150;16.306;2023-07-13T12:13:14;32.10;65.00
33428;DHT22;19769;48.150;16.306;2023-07-13T12:15:43;32.10;69.40
33428;DHT22;19769;48.150;16.306;2023-07-13T12:18:19;32.10;68.20
33428;DHT22;19769;48.150;16.306;2023-07-13T12:20:55;32.10;67.30
33428;DHT22;19769;48.150;16.306;2023-07-13T12:26:06;32.30;65.00
33428;DHT22;19769;48.150;16.306;2023-07-13T12:28:35;32.10;67.70
33428;DHT22;19769;48.150;16.306;2023-07-13T12:33:48;31.80;68.50
33428;DHT22;19769;48.150;16.306;2023-07-13T12:36:24;32.00;67.80
33428;DHT22;19769;48.150;16.306;2023-07-13T12:48:52;32.10;67.30
33428;DHT22;19769;48.150;16.306;2023-07-13T12:51:27;31.70;68.10
33428;DHT22;19769;48.150;16.306;2023-07-13T14:35:14;28.90;71.40
33428;DHT22;19769;48.150;16.306;2023-07-13T14:37:42;28.30;73.50
33428;DHT22;19769;48.150;16.306;2023-07-13T14:40:38;28.20;73.20
33428;DHT22;19769;48.150;16.306;2023-07-13T14:43:04;28.00;74.20
33428;DHT22;19769;48.150;16.306;2023-07-13T14:45:45;27.90;73.90
33428;DHT22;19769;48.150;16.306;2023-07-13T14:48:20;27.80;74.30
33428;DHT22;19769;48.150;16.306;2023-07-13T14:50:58;27.50;75.20
33428;DHT22;19769;48.150;16.306;2023-07-13T14:53:26;27.40;75.50
33428;DHT22;19769;48.150;16.306;2023-07-13T14:55:59;27.30;75.60
33428;DHT22;19769;48.150;16.306;2023-07-13T14:58:26;27.30;75.30
33428;DHT22;19769;48.150;16.306;2023-07-13T15:00:53;27.30;75.60
33428;DHT22;19769;48.150;16.306;2023-07-13T15:03:23;27.20;75.60
33428;DHT22;19769;48.150;16.306;2023-07-13T15:06:04;27.20;75.60
33428;DHT22;19769;48.150;16.306;2023-07-13T15:08:31;27.20;75.60
33428;DHT22;19769;48.150;16.306;2023-07-13T15:11:08;27.10;76.60
33428;DHT22;19769;48.150;16.306;2023-07-13T15:13:38;27.10;76.00
33428;DHT22;19769;48.150;16.306;2023-07-13T15:16:24;27.10;77.40
33428;DHT22;19769;48.150;16.306;2023-07-13T15:18:51;27.10;76.70
33428;DHT22;19769;48.150;16.306;2023-07-13T15:21:21;27.10;77.70
33428;DHT22;19769;48.150;16.306;2023-07-13T15:23:54;27.10;76.60
33428;DHT22;19769;48.150;16.306;2023-07-13T15:26:20;27.00;77.10
33428;DHT22;19769;48.150;16.306;2023-07-13T15:29:01;27.00;77.30
33428;DHT22;19769;48.150;16.306;2023-07-13T15:31:27;27.00;77.70
33428;DHT22;19769;48.150;16.306;2023-07-13T15:33:57;26.90;78.70
33428;DHT22;19769;48.150;16.306;2023-07-13T15:36:24;26.80;78.60
33428;DHT22;19769;48.150;16.306;2023-07-13T15:39:14;26.80;78.50
33428;DHT22;19769;48.150;16.306;2023-07-13T15:41:42;26.70;79.40
33428;DHT22;19769;48.150;16.306;2023-07-13T15:44:28;26.80;78.70
33428;DHT22;19769;48.150;16.306;2023-07-13T15:46:54;26.70;79.80
33428;DHT22;19769;48.150;16.306;2023-07-13T15:49:23;26.60;79.60
33428;DHT22;19769;48.150;16.306;2023-07-13T15:51:49;26.60;79.00
33428;DHT22;19769;48.150;16.306;2023-07-13T15:54:27;26.50;79.30
33428;DHT22;19769;48.150;16.306;2023-07-13T15:56:55;26.40;79.30
33428;DHT22;19769;48.150;16.306;2023-07-13T15:59:22;26.20;79.60
33428;DHT22;19769;48.150;16.306;2023-07-13T16:01:47;26.20;79.70
33428;DHT22;19769;48.150;16.306;2023-07-13T16:04:46;26.10;80.20
33428;DHT22;19769;48.150;16.306;2023-07-13T16:07:15;26.00;80.40
33428;DHT22;19769;48.150;16.306;2023-07-13T16:12:34;26.10;81.00
33428;DHT22;19769;48.150;16.306;2023-07-13T16:15:00;26.00;81.60
33428;DHT22;19769;48.150;16.306;2023-07-13T16:17:26;25.90;82.20
33428;DHT22;19769;48.150;16.306;2023-07-13T16:19:53;25.90;81.80
33428;DHT22;19769;48.150;16.306;2023-07-13T16:22:22;25.80;82.20
33428;DHT22;19769;48.150;16.306;2023-07-13T16:24:50;25.70;83.30
33428;DHT22;19769;48.150;16.306;2023-07-13T16:27:20;25.80;83.30
33428;DHT22;19769;48.150;16.306;2023-07-13T16:30:15;25.80;84.50
33428;DHT22;19769;48.150;16.306;2023-07-13T16:32:41;25.70;85.00
33428;DHT22;19769;48.150;16.306;2023-07-13T16:35:25;25.50;84.90
33428;DHT22;19769;48.150;16.306;2023-07-13T16:37:52;25.40;86.20
33428;DHT22;19769;48.150;16.306;2023-07-13T16:42:54;25.30;85.20
33428;DHT22;19769;48.150;16.306;2023-07-13T16:45:35;25.20;86.00
33428;DHT22;19769;48.150;16.306;2023-07-13T16:48:05;25.20;85.50
33428;DHT22;19769;48.150;16.306;2023-07-13T16:50:38;25.10;86.00
33428;DHT22;19769;48.150;16.306;2023-07-13T16:53:28;25.10;86.10
33428;DHT22;19769;48.150;16.306;2023-07-13T16:55:55;25.00;86.60
33428;DHT22;19769;48.150;16.306;2023-07-13T16:58:23;25.00;86.90
33428;DHT22;19769;48.150;16.306;2023-07-13T17:00:54;25.00;86.90
33428;DHT22;19769;48.150;16.306;2023-07-13T17:03:40;25.10;86.30
33428;DHT22;19769;48.150;16.306;2023-07-13T17:09:11;25.20;85.80
33428;DHT22;19769;48.150;16.306;2023-07-13T17:11:43;25.10;85.80
33428;DHT22;19769;48.150;16.306;2023-07-13T17:14:33;25.10;86.30
33428;DHT22;19769;48.150;16.306;2023-07-13T17:17:02;25.20;86.00
33428;DHT22;19769;48.150;16.306;2023-07-13T17:22:58;25.20;85.90
33428;DHT22;19769;48.150;16.306;2023-07-13T17:25:59;25.10;85.90
33428;DHT22;19769;48.150;16.306;2023-07-13T17:28:26;24.90;87.10
33428;DHT22;19769;48.150;16.306;2023-07-13T17:31:06;24.90;86.80
33428;DHT22;19769;48.150;16.306;2023-07-13T17:33:37;24.90;86.60
33428;DHT22;19769;48.150;16.306;2023-07-13T17:36:17;24.90;87.30
33428;DHT22;19769;48.150;16.306;2023-07-13T17:38:47;25.00;85.90
33428;DHT22;19769;48.150;16.306;2023-07-13T17:41:18;25.00;86.80
33428;DHT22;19769;48.150;16.306;2023-07-13T17:43:45;25.00;86.40
33428;DHT22;19769;48.150;16.306;2023-07-13T17:46:30;24.90;86.80
33428;DHT22;19769;48.150;16.306;2023-07-13T17:48:58;25.10;85.70
33428;DHT22;19769;48.150;16.306;2023-07-13T17:51:32;25.10;85.50
33428;DHT22;19769;48.150;16.306;2023-07-13T17:54:00;25.00;85.70
33428;DHT22;19769;48.150;16.306;2023-07-13T17:56:28;25.00;85.30
33428;DHT22;19769;48.150;16.306;2023-07-13T17:58:58;25.00;85.50
33428;DHT22;19769;48.150;16.306;2023-07-13T18:01:26;24.90;85.60
33428;DHT22;19769;48.150;16.306;2023-07-13T18:03:55;24.90;85.80
33428;DHT22;19769;48.150;16.306;2023-07-13T18:06:27;24.90;86.20
33428;DHT22;19769;48.150;16.306;2023-07-13T18:08:57;24.90;85.70
33428;DHT22;19769;48.150;16.306;2023-07-13T18:11:25;24.90;85.70
33428;DHT22;19769;48.150;16.306;2023-07-13T18:13:53;24.90;85.50
33428;DHT22;19769;48.150;16.306;2023-07-13T18:16:27;24.90;85.60
33428;DHT22;19769;48.150;16.306;2023-07-13T18:43:45;24.80;85.60
33428;DHT22;19769;48.150;16.306;2023-07-13T18:48:44;24.40;87.00
33428;DHT22;19769;48.150;16.306;2023-07-13T18:51:13;24.40;86.40
33428;DHT22;19769;48.150;16.306;2023-07-13T18:53:41;24.40;86.90
33428;DHT22;19769;48.150;16.306;2023-07-13T18:56:09;24.50;86.00
33428;DHT22;19769;48.150;16.306;2023-07-13T18:58:39;24.40;86.20
33428;DHT22;19769;48.150;16.306;2023-07-13T19:01:32;24.30;86.60
33428;DHT22;19769;48.150;16.306;2023-07-13T19:04:28;24.30;86.80
33428;DHT22;19769;48.150;16.306;2023-07-13T19:06:57;24.20;87.20
33428;DHT22;19769;48.150;16.306;2023-07-13T19:09:25;24.20;86.80
33428;DHT22;19769;48.150;16.306;2023-07-13T19:11:53;24.20;86.90
33428;DHT22;19769;48.150;16.306;2023-07-13T22:59:44;24.20;86.70
33428;DHT22;19769;48.150;16.306;2023-07-13T23:02:16;23.00;90.90
33428;DHT22;19769;48.150;16.306;2023-07-13T23:04:43;23.00;91.10
33428;DHT22;19769;48.150;16.306;2023-07-13T23:26:48;22.90;91.00
33428;DHT22;19769;48.150;16.306;2023-07-13T23:29:14;22.80;91.30
33428;DHT22;19769;48.150;16.306;2023-07-13T23:31:41;22.80;91.40
33428;DHT22;19769;48.150;16.306;2023-07-13T23:34:15;22.80;91.20
33428;DHT22;19769;48.150;16.306;2023-07-13T23:36:42;22.80;91.10
33428;DHT22;19769;48.150;16.306;2023-07-13T23:39:17;22.90;91.00
33428;DHT22;19769;48.150;16.306;2023-07-13T23:41:45;22.80;91.30
33428;DHT22;19769;48.150;16.306;2023-07-13T23:44:14;22.80;91.10
33428;DHT22;19769;48.150;16.306;2023-07-13T23:49:26;22.70;91.50
33428;DHT22;19769;48.150;16.306;2023-07-13T23:51:56;22.70;91.30
33428;DHT22;19769;48.150;16.306;2023-07-13T23:54:24;22.60;91.30
33428;DHT22;19769;48.150;16.306;2023-07-13T23:56:51;22.60;91.50
33428;DHT22;19769;48.150;16.306;2023-07-13T23:59:17;22.60;91.60
